createdAt,value
2022-12-22T00:00:15.815Z,3.00
2022-12-22T00:03:03.585Z,2.30
2022-12-22T00:05:51.791Z,2.40
2022-12-22T00:08:39.066Z,2.27
2022-12-22T00:11:31.643Z,1.73
2022-12-22T00:14:19.349Z,2.05
2022-12-22T00:17:07.756Z,1.57
2022-12-22T00:19:55.667Z,1.83
2022-12-22T00:22:44.721Z,2.10
2022-12-22T00:25:34.558Z,1.50
2022-12-22T00:28:25.044Z,1.53
2022-12-22T00:31:13.255Z,1.90
2022-12-22T00:34:01.613Z,1.50
2022-12-22T00:36:49.211Z,1.40
2022-12-22T00:39:36.554Z,1.63
2022-12-22T00:42:24.881Z,1.50
2022-12-22T00:45:12.646Z,1.60
2022-12-22T00:48:01.191Z,1.83
2022-12-22T00:50:54.322Z,1.90
2022-12-22T00:53:42.014Z,2.05
2022-12-22T00:56:29.273Z,1.87
2022-12-22T00:59:17.997Z,1.47
2022-12-22T01:02:05.603Z,2.43
2022-12-22T01:04:53.124Z,1.40
2022-12-22T01:07:42.577Z,2.50
2022-12-22T01:10:31.799Z,1.80
2022-12-22T01:13:19.697Z,1.53
2022-12-22T01:16:07.320Z,1.87
2022-12-22T01:18:54.756Z,2.07
2022-12-22T01:21:41.896Z,1.60
2022-12-22T01:24:34.916Z,1.33
2022-12-22T01:27:23.583Z,1.87
2022-12-22T01:30:11.091Z,1.57
2022-12-22T01:32:58.918Z,1.57
2022-12-22T01:35:49.298Z,1.63
2022-12-22T01:38:36.663Z,1.98
2022-12-22T01:41:24.862Z,1.80
2022-12-22T01:44:12.247Z,1.37
2022-12-22T01:47:05.051Z,1.63
2022-12-22T01:50:02.187Z,1.30
2022-12-22T01:52:52.991Z,2.00
2022-12-22T01:55:43.481Z,1.45
2022-12-22T01:58:42.362Z,1.50
2022-12-22T02:01:30.462Z,1.70
2022-12-22T02:04:18.794Z,1.47
2022-12-22T02:07:09.305Z,2.03
2022-12-22T02:10:02.259Z,1.43
2022-12-22T02:13:15.150Z,1.40
2022-12-22T02:16:18.266Z,1.43
2022-12-22T02:19:29.054Z,1.80
2022-12-22T02:22:36.733Z,2.10
2022-12-22T02:25:27.323Z,2.00
2022-12-22T02:28:16.425Z,2.40
2022-12-22T02:31:06.023Z,2.03
2022-12-22T02:33:53.882Z,2.47
2022-12-22T02:37:03.943Z,2.57
2022-12-22T02:40:06.746Z,2.30
2022-12-22T02:43:06.247Z,1.97
2022-12-22T02:46:05.295Z,2.53
2022-12-22T02:49:13.824Z,2.30
2022-12-22T02:52:07.511Z,2.67
2022-12-22T02:54:55.367Z,2.87
2022-12-22T02:57:43.236Z,2.03
2022-12-22T03:00:31.043Z,2.00
2022-12-22T03:03:19.388Z,1.80
2022-12-22T03:06:06.979Z,1.63
2022-12-22T03:08:54.553Z,1.97
2022-12-22T03:11:42.433Z,1.85
2022-12-22T03:14:29.751Z,2.15
2022-12-22T03:17:17.757Z,1.60
2022-12-22T03:20:04.764Z,1.82
2022-12-22T03:22:52.775Z,1.50
2022-12-22T03:25:39.719Z,2.20
2022-12-22T03:28:10.145Z,1.77
2022-12-22T03:30:40.209Z,2.30
2022-12-22T03:33:09.695Z,2.30
2022-12-22T03:35:39.450Z,3.20
2022-12-22T03:38:08.928Z,2.70
2022-12-22T03:40:38.676Z,3.27
2022-12-22T03:43:26.454Z,2.40
2022-12-22T03:46:14.658Z,2.90
2022-12-22T03:48:47.098Z,2.97
2022-12-22T03:51:16.889Z,3.17
2022-12-22T03:53:46.618Z,3.23
2022-12-22T03:56:16.431Z,2.63
2022-12-22T03:58:46.176Z,2.50
2022-12-22T04:01:15.959Z,2.10
2022-12-22T04:03:45.774Z,2.03
2022-12-22T04:06:15.262Z,2.10
2022-12-22T04:08:45.696Z,2.70
2022-12-22T04:11:36.200Z,2.17
2022-12-22T04:14:06.624Z,2.98
2022-12-22T04:16:36.867Z,2.83
2022-12-22T04:19:07.921Z,2.60
2022-12-22T04:21:38.509Z,2.40
2022-12-22T04:24:08.649Z,2.23
2022-12-22T04:26:38.791Z,2.77
2022-12-22T04:29:08.686Z,3.30
2022-12-22T04:31:38.569Z,4.27
2022-12-22T04:34:08.079Z,4.37
2022-12-22T04:36:38.021Z,3.63
2022-12-22T04:39:07.753Z,4.70
2022-12-22T04:41:37.319Z,3.30
2022-12-22T04:44:07.288Z,4.13
2022-12-22T04:46:37.043Z,3.87
2022-12-22T04:49:06.724Z,4.40
2022-12-22T04:51:36.545Z,4.07
2022-12-22T04:54:06.968Z,3.87
2022-12-22T04:56:36.780Z,4.37
2022-12-22T04:59:07.086Z,4.20
2022-12-22T05:01:36.960Z,3.77
2022-12-22T05:04:06.714Z,4.07
2022-12-22T05:06:36.549Z,4.13
2022-12-22T05:09:07.270Z,4.45
2022-12-22T05:11:37.782Z,4.00
2022-12-22T05:14:07.657Z,4.20
2022-12-22T05:16:37.672Z,3.87
2022-12-22T05:19:08.453Z,4.43
2022-12-22T05:21:38.277Z,4.47
2022-12-22T05:24:08.411Z,4.37
2022-12-22T05:26:38.202Z,4.17
2022-12-22T05:29:07.636Z,3.97
2022-12-22T05:31:40.700Z,3.90
2022-12-22T05:34:08.881Z,4.83
2022-12-22T05:36:38.655Z,4.73
2022-12-22T05:39:08.472Z,5.00
2022-12-22T05:41:38.234Z,5.97
2022-12-22T05:44:07.767Z,5.63
2022-12-22T05:46:37.614Z,5.53
2022-12-22T05:49:07.240Z,6.03
2022-12-22T05:51:37.013Z,5.07
2022-12-22T05:54:06.527Z,4.80
2022-12-22T05:56:36.305Z,4.80
2022-12-22T05:59:06.983Z,5.17
2022-12-22T06:01:37.035Z,5.37
2022-12-22T06:04:07.162Z,5.60
2022-12-22T06:06:37.065Z,5.57
2022-12-22T06:09:06.941Z,5.40
2022-12-22T06:11:36.732Z,5.43
2022-12-22T06:14:06.665Z,5.23
2022-12-22T06:16:36.597Z,5.73
2022-12-22T06:19:07.108Z,5.70
2022-12-22T06:21:37.160Z,4.95
2022-12-22T06:24:07.500Z,4.77
2022-12-22T06:26:37.243Z,5.10
2022-12-22T06:29:07.051Z,5.50
2022-12-22T06:31:36.950Z,5.50
2022-12-22T06:34:06.597Z,5.20
2022-12-22T06:36:36.331Z,3.70
2022-12-22T06:39:07.687Z,4.42
2022-12-22T06:41:55.004Z,4.60
2022-12-22T06:44:24.828Z,4.73
2022-12-22T06:46:54.727Z,5.23
2022-12-22T06:49:24.285Z,3.87
2022-12-22T06:51:54.097Z,4.70
2022-12-22T06:54:26.334Z,5.33
2022-12-22T06:56:55.130Z,5.13
2022-12-22T06:59:24.753Z,4.67
2022-12-22T07:01:54.568Z,4.03
2022-12-22T07:04:24.203Z,4.50
2022-12-22T07:06:53.945Z,5.47
2022-12-22T07:09:23.477Z,5.53
2022-12-22T07:11:53.389Z,8.60
2022-12-22T07:14:23.371Z,7.37
2022-12-22T07:16:53.117Z,7.90
2022-12-22T07:19:22.836Z,7.80
2022-12-22T07:21:52.582Z,8.17
2022-12-22T07:24:23.918Z,9.07
2022-12-22T07:26:53.877Z,8.27
2022-12-22T07:29:24.254Z,8.43
2022-12-22T07:31:53.920Z,8.13
2022-12-22T07:34:23.463Z,9.13
2022-12-22T07:36:53.194Z,7.03
2022-12-22T07:39:23.104Z,6.63
2022-12-22T07:42:13.115Z,6.60
2022-12-22T07:44:42.955Z,6.93
2022-12-22T07:47:12.707Z,7.10
2022-12-22T07:50:00.134Z,6.60
2022-12-22T07:52:29.898Z,6.80
2022-12-22T07:55:00.000Z,6.13
2022-12-22T07:57:29.538Z,6.07
2022-12-22T07:59:59.288Z,6.37
2022-12-22T08:02:32.348Z,6.77
2022-12-22T08:05:00.556Z,6.30
2022-12-22T08:07:30.338Z,6.53
2022-12-22T08:10:00.925Z,5.78
2022-12-22T08:12:32.557Z,7.67
2022-12-22T08:15:02.715Z,6.73
2022-12-22T08:17:32.662Z,6.20
2022-12-22T08:20:02.537Z,4.40
2022-12-22T08:22:32.820Z,4.67
2022-12-22T08:25:03.251Z,6.40
2022-12-22T08:27:40.377Z,6.53
2022-12-22T08:30:11.217Z,5.23
2022-12-22T08:32:42.959Z,4.63
2022-12-22T08:35:12.720Z,4.75
2022-12-22T08:37:45.945Z,5.07
2022-12-22T08:40:21.450Z,4.60
2022-12-22T08:42:54.446Z,4.10
2022-12-22T08:45:23.988Z,4.47
2022-12-22T08:47:53.792Z,3.87
2022-12-22T08:50:23.518Z,3.57
2022-12-22T08:52:53.408Z,4.10
2022-12-22T08:55:23.019Z,3.63
2022-12-22T08:57:56.147Z,3.50
2022-12-22T09:00:25.523Z,3.25
2022-12-22T09:02:55.363Z,2.62
2022-12-22T09:05:24.933Z,2.83
2022-12-22T09:07:54.767Z,3.27
2022-12-22T09:10:24.217Z,2.70
2022-12-22T09:12:53.990Z,3.10
2022-12-22T09:15:23.723Z,3.03
2022-12-22T09:17:53.610Z,3.17
2022-12-22T09:20:23.046Z,2.57
2022-12-22T09:22:52.854Z,2.97
2022-12-22T09:25:22.648Z,3.17
2022-12-22T09:27:52.438Z,3.43
2022-12-22T09:30:22.198Z,3.03
2022-12-22T09:32:51.982Z,3.43
2022-12-22T09:35:21.434Z,4.03
2022-12-22T09:37:51.235Z,3.70
2022-12-22T09:40:22.147Z,3.47
2022-12-22T09:42:52.053Z,2.83
2022-12-22T09:45:21.849Z,2.75
2022-12-22T09:47:54.164Z,3.47
2022-12-22T09:50:26.502Z,2.97
2022-12-22T09:52:59.361Z,3.57
2022-12-22T09:55:49.523Z,3.40
2022-12-22T09:58:34.524Z,2.27
2022-12-22T10:01:16.427Z,3.80
2022-12-22T10:04:04.034Z,3.10
2022-12-22T10:06:48.901Z,2.63
2022-12-22T10:11:58.452Z,2.93
2022-12-22T10:14:39.673Z,2.63
2022-12-22T10:17:32.052Z,3.07
2022-12-22T10:20:29.581Z,2.83
2022-12-22T10:23:05.189Z,3.07
2022-12-22T10:28:38.342Z,3.33
2022-12-22T10:31:16.949Z,2.90
2022-12-22T10:33:49.213Z,2.43
2022-12-22T10:36:21.910Z,2.80
2022-12-22T10:38:59.904Z,2.37
2022-12-22T10:41:32.700Z,3.27
2022-12-22T10:44:05.845Z,2.57
2022-12-22T10:46:41.173Z,3.20
2022-12-22T10:49:26.018Z,2.84
2022-12-22T10:51:58.461Z,2.77
2022-12-22T10:54:36.198Z,3.70
2022-12-22T10:57:09.717Z,3.40
2022-12-22T10:59:54.740Z,3.23
2022-12-22T11:02:27.726Z,3.23
2022-12-22T11:05:09.655Z,3.50
2022-12-22T11:07:42.403Z,3.25
2022-12-22T11:10:27.047Z,3.00
2022-12-22T11:13:11.656Z,3.03
2022-12-22T11:15:44.493Z,2.67
2022-12-22T11:18:33.117Z,3.30
2022-12-22T11:21:24.606Z,3.73
2022-12-22T11:26:58.090Z,3.05
2022-12-22T11:29:30.633Z,4.45
2022-12-22T11:32:32.602Z,3.30
2022-12-22T11:35:28.975Z,3.03
2022-12-22T11:38:04.811Z,2.30
2022-12-22T11:40:52.309Z,3.37
2022-12-22T11:43:40.075Z,2.83
2022-12-22T11:46:35.471Z,2.63
2022-12-22T11:49:27.246Z,2.90
2022-12-22T11:54:46.333Z,3.15
2022-12-22T11:57:37.566Z,3.30
2022-12-22T12:00:18.623Z,3.40
2022-12-22T12:03:23.186Z,2.70
2022-12-22T12:06:20.428Z,2.60
2022-12-22T12:09:14.233Z,3.10
2022-12-22T12:11:58.877Z,3.50
2022-12-22T12:14:34.234Z,3.03
2022-12-22T12:17:22.335Z,2.97
2022-12-22T12:20:04.110Z,2.43
2022-12-22T12:22:36.996Z,3.80
2022-12-22T12:25:13.789Z,2.93
2022-12-22T12:27:55.743Z,2.60
2022-12-22T12:30:38.924Z,2.87
2022-12-22T12:33:18.987Z,2.07
2022-12-22T12:35:51.879Z,1.67
2022-12-22T12:39:06.403Z,1.73
2022-12-22T12:41:13.455Z,1.07
2022-12-22T12:43:45.939Z,1.30
2022-12-22T12:46:47.686Z,0.90
2022-12-22T12:49:36.731Z,1.87
2022-12-22T12:52:07.796Z,1.40
2022-12-22T12:54:42.933Z,1.03
2022-12-22T12:57:24.287Z,1.57
2022-12-22T12:59:57.165Z,1.07
2022-12-22T13:02:35.942Z,1.00
2022-12-22T13:05:12.760Z,1.02
2022-12-22T13:08:08.569Z,0.77
2022-12-22T13:10:41.413Z,0.63
2022-12-22T13:13:26.184Z,0.92
2022-12-22T13:16:07.785Z,0.90
2022-12-22T13:18:44.401Z,1.00
2022-12-22T13:24:29.513Z,1.37
2022-12-22T13:26:40.152Z,0.97
2022-12-22T13:29:25.041Z,0.70
2022-12-22T13:31:57.981Z,0.97
2022-12-22T13:35:29.097Z,1.00
2022-12-22T13:37:26.800Z,1.10
2022-12-22T13:40:23.737Z,0.90
2022-12-22T13:42:57.171Z,0.95
2022-12-22T13:45:32.606Z,1.10
2022-12-22T13:48:05.133Z,1.17
2022-12-22T13:50:37.554Z,1.03
2022-12-22T13:53:10.245Z,0.90
2022-12-22T13:55:40.270Z,1.13
2022-12-22T13:58:31.488Z,0.77
2022-12-22T14:01:17.274Z,0.80
2022-12-22T14:04:00.202Z,1.33
2022-12-22T14:06:33.774Z,1.30
2022-12-22T14:09:19.199Z,1.45
2022-12-22T14:12:04.063Z,1.03
2022-12-22T14:14:42.842Z,0.90
2022-12-22T14:17:29.968Z,0.90
2022-12-22T14:20:02.902Z,0.82
2022-12-22T14:22:38.879Z,0.50
2022-12-22T14:25:19.881Z,1.10
2022-12-22T14:30:21.614Z,0.80
2022-12-22T14:32:57.579Z,0.90
2022-12-22T14:35:31.637Z,1.03
2022-12-22T14:38:07.362Z,0.80
2022-12-22T14:40:40.599Z,0.98
2022-12-22T14:43:22.342Z,0.97
2022-12-22T14:45:53.203Z,1.03
2022-12-22T14:48:28.592Z,1.02
2022-12-22T14:50:59.281Z,1.10
2022-12-22T14:53:49.864Z,1.20
2022-12-22T14:56:20.378Z,1.23
2022-12-22T14:58:51.917Z,0.90
2022-12-22T15:01:25.479Z,0.80
2022-12-22T15:04:04.123Z,1.47
2022-12-22T15:06:40.116Z,1.13
2022-12-22T15:09:12.742Z,1.03
2022-12-22T15:11:45.916Z,1.40
2022-12-22T15:14:19.050Z,1.60
2022-12-22T15:16:49.788Z,1.50
2022-12-22T15:19:22.501Z,1.30
2022-12-22T15:21:53.020Z,1.30
2022-12-22T15:24:22.734Z,1.53
2022-12-22T15:26:52.581Z,1.43
2022-12-22T15:29:22.211Z,1.60
2022-12-22T15:31:52.572Z,1.40
2022-12-22T15:34:30.823Z,1.30
2022-12-22T15:37:00.950Z,1.90
2022-12-22T15:39:30.975Z,1.85
2022-12-22T15:42:01.045Z,2.73
2022-12-22T15:44:38.292Z,4.00
2022-12-22T15:47:02.597Z,3.80
2022-12-22T15:49:32.878Z,3.00
2022-12-22T15:52:05.136Z,3.10
2022-12-22T15:54:36.375Z,3.00
2022-12-22T15:59:34.555Z,1.50
2022-12-22T16:02:04.744Z,1.92
2022-12-22T16:04:34.620Z,2.20
2022-12-22T16:07:04.510Z,2.07
2022-12-22T16:09:42.110Z,3.10
2022-12-22T16:12:13.977Z,3.20
2022-12-22T16:14:50.333Z,2.93
2022-12-22T16:17:23.171Z,2.70
2022-12-22T16:19:53.244Z,2.50
2022-12-22T16:22:34.391Z,2.43
2022-12-22T16:25:07.069Z,2.70
2022-12-22T16:27:37.138Z,2.87
2022-12-22T16:30:08.814Z,2.07
2022-12-22T16:32:40.026Z,2.57
2022-12-22T16:35:15.642Z,2.70
2022-12-22T16:37:45.455Z,2.57
2022-12-22T16:40:15.581Z,2.20
2022-12-22T16:45:39.233Z,2.20
2022-12-22T16:48:12.018Z,2.80
2022-12-22T16:50:44.838Z,2.50
2022-12-22T16:53:17.842Z,3.17
2022-12-22T16:55:47.610Z,3.50
2022-12-22T16:58:17.356Z,2.87
2022-12-22T17:00:47.619Z,2.47
2022-12-22T17:03:20.118Z,2.23
2022-12-22T17:05:59.765Z,2.43
2022-12-22T17:08:32.791Z,2.43
2022-12-22T17:11:10.832Z,2.52
2022-12-22T17:13:40.036Z,2.93
2022-12-22T17:16:12.589Z,2.23
2022-12-22T17:18:42.364Z,2.20
2022-12-22T17:21:13.338Z,2.93
2022-12-22T17:23:54.555Z,2.50
2022-12-22T17:26:26.590Z,2.47
2022-12-22T17:28:56.434Z,2.00
2022-12-22T17:31:27.246Z,2.00
2022-12-22T17:33:58.236Z,1.85
2022-12-22T17:39:08.915Z,1.87
2022-12-22T17:41:38.792Z,2.65
2022-12-22T17:44:17.832Z,2.37
2022-12-22T17:46:47.927Z,2.03
2022-12-22T17:49:19.476Z,2.10
2022-12-22T17:54:27.484Z,2.70
2022-12-22T17:57:02.890Z,2.93
2022-12-22T17:59:32.811Z,3.20
2022-12-22T18:02:02.698Z,3.10
2022-12-22T18:04:32.860Z,3.12
2022-12-22T18:07:02.659Z,2.13
2022-12-22T18:09:32.528Z,2.73
2022-12-22T18:12:02.688Z,2.25
2022-12-22T18:14:32.727Z,3.23
2022-12-22T18:17:03.041Z,2.55
2022-12-22T18:19:32.846Z,3.43
2022-12-22T18:22:34.122Z,2.93
2022-12-22T18:25:19.035Z,3.23
2022-12-22T18:27:49.898Z,2.90
2022-12-22T18:30:22.479Z,2.97
2022-12-22T18:32:53.573Z,3.17
2022-12-22T18:35:26.648Z,2.30
2022-12-22T18:37:56.820Z,2.67
2022-12-22T18:40:29.896Z,2.70
2022-12-22T18:43:00.401Z,2.60
2022-12-22T18:45:31.805Z,2.23
2022-12-22T18:48:01.904Z,2.00
2022-12-22T18:50:33.642Z,2.70
2022-12-22T18:53:09.628Z,2.90
2022-12-22T18:55:39.383Z,2.03
2022-12-22T18:58:11.964Z,2.27
2022-12-22T19:00:42.782Z,1.40
2022-12-22T19:03:24.647Z,2.35
2022-12-22T19:05:54.437Z,1.67
2022-12-22T19:08:26.267Z,1.67
2022-12-22T19:10:58.821Z,1.35
2022-12-22T19:13:34.946Z,1.67
2022-12-22T19:16:05.132Z,1.70
2022-12-22T19:18:35.025Z,1.50
2022-12-22T19:21:06.036Z,1.37
2022-12-22T19:23:35.881Z,1.50
2022-12-22T19:26:09.261Z,1.30
2022-12-22T19:28:41.720Z,1.80
2022-12-22T19:31:14.654Z,1.60
2022-12-22T19:33:48.348Z,1.67
2022-12-22T19:36:21.947Z,1.93
2022-12-22T19:38:58.778Z,2.60
2022-12-22T19:41:33.851Z,2.03
2022-12-22T19:44:04.608Z,2.30
2022-12-22T19:46:37.376Z,2.37
2022-12-22T19:49:07.657Z,2.17
2022-12-22T19:51:37.398Z,2.40
2022-12-22T19:54:06.893Z,2.80
2022-12-22T19:56:36.643Z,2.80
2022-12-22T19:59:09.481Z,2.80
2022-12-22T20:01:39.353Z,2.00
2022-12-22T20:04:12.262Z,2.37
2022-12-22T20:06:41.973Z,1.83
2022-12-22T20:09:11.461Z,1.80
2022-12-22T20:11:42.330Z,2.50
2022-12-22T20:14:19.409Z,2.33
2022-12-22T20:16:49.250Z,1.97
2022-12-22T20:19:19.006Z,2.60
2022-12-22T20:21:48.867Z,2.00
2022-12-22T20:24:21.668Z,2.40
2022-12-22T20:26:54.441Z,2.33
2022-12-22T20:29:23.126Z,2.27
2022-12-22T20:31:53.344Z,2.93
2022-12-22T20:34:23.260Z,2.80
2022-12-22T20:36:53.274Z,3.57
2022-12-22T20:39:22.977Z,4.30
2022-12-22T20:41:53.906Z,3.10
2022-12-22T20:44:24.065Z,3.12
2022-12-22T20:46:53.901Z,3.77
2022-12-22T20:49:23.640Z,4.10
2022-12-22T20:51:53.381Z,3.53
2022-12-22T20:54:22.876Z,4.20
2022-12-22T20:56:52.639Z,2.70
2022-12-22T20:59:24.988Z,3.03
2022-12-22T21:01:54.874Z,2.10
2022-12-22T21:04:24.938Z,3.07
2022-12-22T21:06:56.825Z,2.83
2022-12-22T21:09:26.751Z,2.65
2022-12-22T21:11:56.216Z,3.30
2022-12-22T21:14:25.973Z,3.40
2022-12-22T21:16:56.037Z,3.30
2022-12-22T21:19:25.824Z,2.63
2022-12-22T21:21:55.607Z,3.53
2022-12-22T21:24:25.429Z,3.30
2022-12-22T21:26:57.143Z,3.63
2022-12-22T21:29:28.559Z,3.63
2022-12-22T21:34:26.665Z,3.72
2022-12-22T21:37:02.275Z,3.30
2022-12-22T21:39:42.804Z,3.77
2022-12-22T21:42:16.907Z,3.90
2022-12-22T21:44:47.721Z,3.77
2022-12-22T21:47:20.657Z,3.58
2022-12-22T21:49:50.447Z,3.20
2022-12-22T21:52:19.903Z,3.13
2022-12-22T21:54:49.665Z,3.10
2022-12-22T21:57:19.476Z,3.20
2022-12-22T21:59:49.239Z,3.03
2022-12-22T22:02:19.922Z,3.30
2022-12-22T22:04:54.531Z,3.30
2022-12-22T22:07:20.975Z,2.63
2022-12-22T22:09:50.747Z,2.93
2022-12-22T22:12:37.308Z,2.67
2022-12-22T22:15:08.196Z,3.13
2022-12-22T22:17:38.084Z,2.62
2022-12-22T22:20:09.606Z,2.93
2022-12-22T22:22:39.353Z,3.53
2022-12-22T22:25:09.895Z,3.43
2022-12-22T22:27:45.789Z,4.03
2022-12-22T22:30:14.473Z,3.53
2022-12-22T22:32:44.779Z,4.37
2022-12-22T22:35:14.587Z,3.00
2022-12-22T22:37:45.597Z,3.20
2022-12-22T22:42:46.194Z,2.77
2022-12-22T22:45:19.716Z,2.95
2022-12-22T22:47:51.398Z,3.15
2022-12-22T22:50:22.285Z,3.17
2022-12-22T22:52:52.082Z,3.40
2022-12-22T22:55:21.532Z,2.97
2022-12-22T22:57:51.661Z,2.83
2022-12-22T23:00:22.062Z,2.67
2022-12-22T23:02:52.127Z,2.83
2022-12-22T23:05:23.147Z,3.30
2022-12-22T23:07:53.236Z,2.98
2022-12-22T23:10:22.912Z,3.60
2022-12-22T23:12:52.688Z,4.27
2022-12-22T23:15:22.359Z,4.20
2022-12-22T23:17:52.778Z,4.03
2022-12-22T23:20:22.575Z,4.47
2022-12-22T23:22:52.341Z,4.67
2022-12-22T23:25:21.785Z,3.77
2022-12-22T23:27:51.592Z,4.00
2022-12-22T23:30:21.242Z,4.10
2022-12-22T23:32:50.980Z,3.80
2022-12-22T23:35:20.534Z,3.37
2022-12-22T23:37:50.276Z,4.00
2022-12-22T23:42:56.587Z,3.10
2022-12-22T23:45:22.653Z,3.62
2022-12-22T23:47:52.397Z,3.73
2022-12-22T23:50:22.587Z,3.63
2022-12-22T23:52:53.576Z,4.07
2022-12-22T23:55:23.239Z,3.70
2022-12-22T23:57:53.994Z,4.93
